createdAt,value
2023-01-07T00:00:41.304Z,21.23
2023-01-07T00:01:41.219Z,21.23
2023-01-07T00:02:41.315Z,21.23
2023-01-07T00:03:41.298Z,21.13
2023-01-07T00:04:41.345Z,21.42
2023-01-07T00:05:41.223Z,21.42
2023-01-07T00:06:41.231Z,21.33
2023-01-07T00:07:41.216Z,21.13
2023-01-07T00:08:41.223Z,21.33
2023-01-07T00:09:41.213Z,21.23
2023-01-07T00:10:41.220Z,21.03
2023-01-07T00:11:41.234Z,21.23
2023-01-07T00:12:41.224Z,21.13
2023-01-07T00:13:41.212Z,21.23
2023-01-07T00:14:41.216Z,21.23
2023-01-07T00:15:41.230Z,21.13
2023-01-07T00:16:41.216Z,21.03
2023-01-07T00:17:41.207Z,20.94
2023-01-07T00:18:41.217Z,21.42
2023-01-07T00:19:41.205Z,21.23
2023-01-07T00:20:41.337Z,21.23
2023-01-07T00:21:41.213Z,20.94
2023-01-07T00:22:41.216Z,21.03
2023-01-07T00:23:41.207Z,21.23
2023-01-07T00:24:41.216Z,21.03
2023-01-07T00:25:41.200Z,20.94
2023-01-07T00:26:41.245Z,21.03
2023-01-07T00:27:41.200Z,21.03
2023-01-07T00:28:41.233Z,20.94
2023-01-07T00:29:41.200Z,21.03
2023-01-07T00:30:41.207Z,21.03
2023-01-07T00:31:41.321Z,21.51
2023-01-07T00:32:41.203Z,21.03
2023-01-07T00:33:41.193Z,21.03
2023-01-07T00:34:41.200Z,21.03
2023-01-07T00:35:41.197Z,21.13
2023-01-07T00:36:41.311Z,21.13
2023-01-07T00:37:41.189Z,21.61
2023-01-07T00:38:41.197Z,21.51
2023-01-07T00:39:42.057Z,21.03
2023-01-07T00:40:41.200Z,21.03
2023-01-07T00:41:41.186Z,21.61
2023-01-07T00:42:41.195Z,21.51
2023-01-07T00:43:41.185Z,21.13
2023-01-07T00:44:41.192Z,21.23
2023-01-07T00:45:41.183Z,21.03
2023-01-07T00:46:41.220Z,21.51
2023-01-07T00:47:41.186Z,21.03
2023-01-07T00:48:41.188Z,21.51
2023-01-07T00:49:41.180Z,21.51
2023-01-07T00:50:41.191Z,21.51
2023-01-07T00:51:41.176Z,21.13
2023-01-07T00:52:41.305Z,21.61
2023-01-07T00:53:41.182Z,21.42
2023-01-07T00:54:41.188Z,21.51
2023-01-07T00:55:41.178Z,21.03
2023-01-07T00:56:41.179Z,21.03
2023-01-07T00:57:41.170Z,20.94
2023-01-07T00:58:41.176Z,21.13
2023-01-07T00:59:41.170Z,21.13
2023-01-07T01:00:41.277Z,21.61
2023-01-07T01:01:41.361Z,21.51
2023-01-07T01:02:41.220Z,21.03
2023-01-07T01:03:41.169Z,21.33
2023-01-07T01:04:41.187Z,21.03
2023-01-07T01:05:41.166Z,21.51
2023-01-07T01:06:41.182Z,21.13
2023-01-07T01:07:41.169Z,21.13
2023-01-07T01:08:41.202Z,21.51
2023-01-07T01:09:41.163Z,21.51
2023-01-07T01:10:41.168Z,21.13
2023-01-07T01:11:41.161Z,21.61
2023-01-07T01:12:41.173Z,21.13
2023-01-07T01:13:41.164Z,21.51
2023-01-07T01:14:41.167Z,21.61
2023-01-07T01:15:41.158Z,21.51
2023-01-07T01:16:41.200Z,21.13
2023-01-07T01:17:41.166Z,21.61
2023-01-07T01:18:41.210Z,21.51
2023-01-07T01:19:41.153Z,21.61
2023-01-07T01:20:41.159Z,21.33
2023-01-07T01:21:41.203Z,21.61
2023-01-07T01:22:41.163Z,21.61
2023-01-07T01:23:41.149Z,21.61
2023-01-07T01:24:41.275Z,21.51
2023-01-07T01:25:41.150Z,21.61
2023-01-07T01:26:41.155Z,21.13
2023-01-07T01:27:41.146Z,21.42
2023-01-07T01:28:41.159Z,21.33
2023-01-07T01:29:41.151Z,21.51
2023-01-07T01:30:41.151Z,21.51
2023-01-07T01:31:41.237Z,21.51
2023-01-07T01:32:41.150Z,21.61
2023-01-07T01:33:41.171Z,21.51
2023-01-07T01:34:41.151Z,21.51
2023-01-07T01:35:41.142Z,21.51
2023-01-07T01:36:41.160Z,21.51
2023-01-07T01:37:41.142Z,21.61
2023-01-07T01:38:41.195Z,21.42
2023-01-07T01:39:41.137Z,21.42
2023-01-07T01:40:41.275Z,21.51
2023-01-07T01:41:41.137Z,21.51
2023-01-07T01:42:41.160Z,21.42
2023-01-07T01:43:41.170Z,21.51
2023-01-07T01:44:41.138Z,21.33
2023-01-07T01:45:41.138Z,21.42
2023-01-07T01:46:41.250Z,21.33
2023-01-07T01:47:41.136Z,21.33
2023-01-07T01:48:41.146Z,21.42
2023-01-07T01:49:41.132Z,21.51
2023-01-07T01:50:41.134Z,21.33
2023-01-07T01:51:41.129Z,21.42
2023-01-07T01:52:41.137Z,21.51
2023-01-07T01:53:41.127Z,21.61
2023-01-07T01:54:41.131Z,21.13
2023-01-07T01:55:41.145Z,21.51
2023-01-07T01:56:41.250Z,21.33
2023-01-07T01:57:41.123Z,21.33
2023-01-07T01:58:41.136Z,21.42
2023-01-07T01:59:41.125Z,21.42
2023-01-07T02:00:41.186Z,21.33
2023-01-07T02:01:41.335Z,21.51
2023-01-07T02:02:41.177Z,21.42
2023-01-07T02:03:41.125Z,21.42
2023-01-07T02:04:41.136Z,21.42
2023-01-07T02:05:41.136Z,21.42
2023-01-07T02:06:41.121Z,21.33
2023-01-07T02:07:41.111Z,21.51
2023-01-07T02:08:41.117Z,21.33
2023-01-07T02:09:41.120Z,21.61
2023-01-07T02:10:41.130Z,21.51
2023-01-07T02:11:41.117Z,21.42
2023-01-07T02:12:41.235Z,21.33
2023-01-07T02:13:41.105Z,21.33
2023-01-07T02:14:41.111Z,21.42
2023-01-07T02:15:41.104Z,21.33
2023-01-07T02:16:41.145Z,21.42
2023-01-07T02:17:41.101Z,21.51
2023-01-07T02:18:41.111Z,21.51
2023-01-07T02:19:41.120Z,21.42
2023-01-07T02:20:41.110Z,21.42
2023-01-07T02:21:41.097Z,21.42
2023-01-07T02:22:41.111Z,21.51
2023-01-07T02:23:41.104Z,21.42
2023-01-07T02:24:41.106Z,21.42
2023-01-07T02:25:41.096Z,21.42
2023-01-07T02:26:41.104Z,21.51
2023-01-07T02:27:41.096Z,21.51
2023-01-07T02:28:41.224Z,21.42
2023-01-07T02:29:41.093Z,21.42
2023-01-07T02:30:41.100Z,21.51
2023-01-07T02:31:41.149Z,21.51
2023-01-07T02:32:41.100Z,21.42
2023-01-07T02:33:41.089Z,21.42
2023-01-07T02:34:41.096Z,21.42
2023-01-07T02:35:41.088Z,21.51
2023-01-07T02:36:41.093Z,21.42
2023-01-07T02:37:41.092Z,21.42
2023-01-07T02:38:41.093Z,21.42
2023-01-07T02:39:41.091Z,21.51
2023-01-07T02:40:41.083Z,21.33
2023-01-07T02:41:41.088Z,21.42
2023-01-07T02:42:41.085Z,21.33
2023-01-07T02:43:41.086Z,21.51
2023-01-07T02:44:41.218Z,21.51
2023-01-07T02:45:41.100Z,21.42
2023-01-07T02:46:41.077Z,21.42
2023-01-07T02:47:41.098Z,21.42
2023-01-07T02:48:41.075Z,21.42
2023-01-07T02:49:41.081Z,21.51
2023-01-07T02:50:41.073Z,21.42
2023-01-07T02:51:41.103Z,21.42
2023-01-07T02:52:41.085Z,21.51
2023-01-07T02:53:41.080Z,21.51
2023-01-07T02:54:41.072Z,21.42
2023-01-07T02:55:41.078Z,21.51
2023-01-07T02:56:41.078Z,21.51
2023-01-07T02:57:41.085Z,21.51
2023-01-07T02:58:41.069Z,21.51
2023-01-07T02:59:41.073Z,21.42
2023-01-07T03:00:41.219Z,21.33
2023-01-07T03:01:41.217Z,21.51
2023-01-07T03:02:41.081Z,21.51
2023-01-07T03:03:41.143Z,21.33
2023-01-07T03:04:41.068Z,21.23
2023-01-07T03:05:41.068Z,21.51
2023-01-07T03:06:41.066Z,21.51
2023-01-07T03:07:41.075Z,21.33
2023-01-07T03:08:41.059Z,21.33
2023-01-07T03:09:41.072Z,21.42
2023-01-07T03:10:41.059Z,21.42
2023-01-07T03:11:41.064Z,21.42
2023-01-07T03:12:41.057Z,21.51
2023-01-07T03:13:41.066Z,21.33
2023-01-07T03:14:41.083Z,21.51
2023-01-07T03:15:41.066Z,21.42
2023-01-07T03:16:41.226Z,21.33
2023-01-07T03:17:41.057Z,21.23
2023-01-07T03:18:41.051Z,21.51
2023-01-07T03:19:41.056Z,21.51
2023-01-07T03:20:41.054Z,21.42
2023-01-07T03:21:41.063Z,21.23
2023-01-07T03:22:41.045Z,21.51
2023-01-07T03:23:41.053Z,21.51
2023-01-07T03:24:41.049Z,21.51
2023-01-07T03:25:41.055Z,21.51
2023-01-07T03:26:41.043Z,21.51
2023-01-07T03:27:41.050Z,21.42
2023-01-07T03:28:41.049Z,21.23
2023-01-07T03:29:41.057Z,21.51
2023-01-07T03:30:41.046Z,21.51
2023-01-07T03:31:41.090Z,21.42
2023-01-07T03:32:41.169Z,21.42
2023-01-07T03:33:41.055Z,21.42
2023-01-07T03:34:41.042Z,21.51
2023-01-07T03:35:41.045Z,21.51
2023-01-07T03:36:41.038Z,21.51
2023-01-07T03:37:41.042Z,21.42
2023-01-07T03:38:41.034Z,21.42
2023-01-07T03:39:41.061Z,21.42
2023-01-07T03:40:41.033Z,21.33
2023-01-07T03:41:41.038Z,21.33
2023-01-07T03:42:41.034Z,21.23
2023-01-07T03:43:41.037Z,21.51
2023-01-07T03:44:41.029Z,21.42
2023-01-07T03:45:41.118Z,21.33
2023-01-07T03:46:41.029Z,21.51
2023-01-07T03:47:41.035Z,21.51
2023-01-07T03:48:41.158Z,21.51
2023-01-07T03:49:41.058Z,21.23
2023-01-07T03:50:41.027Z,21.51
2023-01-07T03:51:41.039Z,21.51
2023-01-07T03:52:41.028Z,21.33
2023-01-07T03:53:41.028Z,21.51
2023-01-07T03:54:41.028Z,21.42
2023-01-07T03:55:41.026Z,21.42
2023-01-07T03:56:41.019Z,21.51
2023-01-07T03:57:41.049Z,21.42
2023-01-07T03:58:41.024Z,21.33
2023-01-07T03:59:41.035Z,21.33
2023-01-07T04:00:41.020Z,21.33
2023-01-07T04:01:41.237Z,21.23
2023-01-07T04:02:41.018Z,21.33
2023-01-07T04:03:41.021Z,21.51
2023-01-07T04:04:41.162Z,21.42
2023-01-07T04:05:41.021Z,21.33
2023-01-07T04:06:41.009Z,21.23
2023-01-07T04:07:41.017Z,21.42
2023-01-07T04:08:41.024Z,21.42
2023-01-07T04:09:41.024Z,21.33
2023-01-07T04:10:41.019Z,21.42
2023-01-07T04:11:41.016Z,21.51
2023-01-07T04:12:41.007Z,21.42
2023-01-07T04:13:41.012Z,21.51
2023-01-07T04:14:41.000Z,21.33
2023-01-07T04:15:41.011Z,21.33
2023-01-07T04:16:41.068Z,21.23
2023-01-07T04:17:41.004Z,21.51
2023-01-07T04:18:41.002Z,21.51
2023-01-07T04:19:41.007Z,21.42
2023-01-07T04:20:41.114Z,21.51
2023-01-07T04:21:41.041Z,21.33
2023-01-07T04:22:40.999Z,21.33
2023-01-07T04:23:41.002Z,21.51
2023-01-07T04:24:40.997Z,21.33
2023-01-07T04:25:40.999Z,21.42
2023-01-07T04:26:40.995Z,21.42
2023-01-07T04:27:40.999Z,21.33
2023-01-07T04:28:40.992Z,21.51
2023-01-07T04:29:40.996Z,21.42
2023-01-07T04:30:41.047Z,21.41
2023-01-07T04:31:40.994Z,21.33
2023-01-07T04:32:41.003Z,21.33
2023-01-07T04:33:40.992Z,21.51
2023-01-07T04:34:40.984Z,21.33
2023-01-07T04:35:41.001Z,21.51
2023-01-07T04:36:41.015Z,21.42
2023-01-07T04:37:40.987Z,21.51
2023-01-07T04:38:40.989Z,21.42
2023-01-07T04:39:40.987Z,21.42
2023-01-07T04:40:40.980Z,21.42
2023-01-07T04:41:40.991Z,21.42
2023-01-07T04:42:40.983Z,21.23
2023-01-07T04:43:40.999Z,21.51
2023-01-07T04:44:40.985Z,21.42
2023-01-07T04:45:41.002Z,21.51
2023-01-07T04:46:40.980Z,21.42
2023-01-07T04:47:40.983Z,21.51
2023-01-07T04:48:40.976Z,21.33
2023-01-07T04:49:40.980Z,21.42
2023-01-07T04:50:40.974Z,21.51
2023-01-07T04:51:40.977Z,21.51
2023-01-07T04:52:41.119Z,21.33
2023-01-07T04:53:40.976Z,21.51
2023-01-07T04:54:40.969Z,21.51
2023-01-07T04:55:40.976Z,21.33
2023-01-07T04:56:40.968Z,21.33
2023-01-07T04:57:40.973Z,21.51
2023-01-07T04:58:40.964Z,21.33
2023-01-07T04:59:40.977Z,21.42
2023-01-07T05:00:40.963Z,21.23
2023-01-07T05:01:41.094Z,21.23
2023-01-07T05:02:40.978Z,21.42
2023-01-07T05:03:40.970Z,21.23
2023-01-07T05:04:41.027Z,21.51
2023-01-07T05:05:40.973Z,21.31
2023-01-07T05:06:40.956Z,21.42
2023-01-07T05:07:40.966Z,21.51
2023-01-07T05:08:41.075Z,21.42
2023-01-07T05:09:40.964Z,21.42
2023-01-07T05:10:40.963Z,21.51
2023-01-07T05:11:40.970Z,21.61
2023-01-07T05:12:40.954Z,21.42
2023-01-07T05:13:40.971Z,21.13
2023-01-07T05:14:40.957Z,21.03
2023-01-07T05:15:40.958Z,21.42
2023-01-07T05:16:41.006Z,21.33
2023-01-07T05:17:40.963Z,21.51
2023-01-07T05:18:40.950Z,21.23
2023-01-07T05:19:40.954Z,21.41
2023-01-07T05:20:40.950Z,21.33
2023-01-07T05:21:40.962Z,21.03
2023-01-07T05:22:40.944Z,21.03
2023-01-07T05:23:40.960Z,21.03
2023-01-07T05:24:41.071Z,21.13
2023-01-07T05:25:40.954Z,21.23
2023-01-07T05:26:40.949Z,21.03
2023-01-07T05:27:40.945Z,21.13
2023-01-07T05:28:40.937Z,21.12
2023-01-07T05:29:40.947Z,20.94
2023-01-07T05:30:40.972Z,21.13
2023-01-07T05:31:40.945Z,20.94
2023-01-07T05:32:40.938Z,20.74
2023-01-07T05:33:40.939Z,20.94
2023-01-07T05:34:40.934Z,20.94
2023-01-07T05:35:40.938Z,20.84
2023-01-07T05:36:40.933Z,20.84
2023-01-07T05:37:40.938Z,20.84
2023-01-07T05:38:40.928Z,20.94
2023-01-07T05:39:40.948Z,20.64
2023-01-07T05:40:41.053Z,20.84
2023-01-07T05:41:40.932Z,20.84
2023-01-07T05:42:40.924Z,20.74
2023-01-07T05:43:40.932Z,20.65
2023-01-07T05:44:40.923Z,20.84
2023-01-07T05:45:40.929Z,20.74
2023-01-07T05:46:40.923Z,20.84
2023-01-07T05:47:40.927Z,20.74
2023-01-07T05:48:40.928Z,20.74
2023-01-07T05:49:40.925Z,21.13
2023-01-07T05:50:40.917Z,20.45
2023-01-07T05:51:40.928Z,20.44
2023-01-07T05:52:40.919Z,20.45
2023-01-07T05:53:40.928Z,20.55
2023-01-07T05:54:40.915Z,20.54
2023-01-07T05:55:40.938Z,20.73
2023-01-07T05:56:41.032Z,20.74
2023-01-07T05:57:40.931Z,20.55
2023-01-07T05:58:40.913Z,20.65
2023-01-07T05:59:40.918Z,20.54
2023-01-07T06:00:40.914Z,20.94
2023-01-07T06:01:40.921Z,20.64
2023-01-07T06:02:40.914Z,20.54
2023-01-07T06:03:40.987Z,20.83
2023-01-07T06:04:40.960Z,20.45
2023-01-07T06:05:40.913Z,20.84
2023-01-07T06:06:40.919Z,20.44
2023-01-07T06:07:40.928Z,20.54
2023-01-07T06:08:40.923Z,20.74
2023-01-07T06:09:40.910Z,20.94
2023-01-07T06:10:40.905Z,20.64
2023-01-07T06:11:40.913Z,20.64
2023-01-07T06:12:41.024Z,20.64
2023-01-07T06:13:40.905Z,20.54
2023-01-07T06:14:40.897Z,20.64
2023-01-07T06:15:40.964Z,20.64
2023-01-07T06:16:40.902Z,20.64
2023-01-07T06:17:40.911Z,20.64
2023-01-07T06:18:40.904Z,20.64
2023-01-07T06:19:40.900Z,20.64
2023-01-07T06:20:40.892Z,20.73
2023-01-07T06:21:40.900Z,20.44
2023-01-07T06:22:40.891Z,20.83
2023-01-07T06:23:40.895Z,20.73
2023-01-07T06:24:40.901Z,20.83
2023-01-07T06:25:40.905Z,20.73
2023-01-07T06:26:40.885Z,20.64
2023-01-07T06:27:40.890Z,20.73
2023-01-07T06:28:41.007Z,20.73
2023-01-07T06:29:40.889Z,20.73
2023-01-07T06:30:40.881Z,20.64
2023-01-07T06:31:40.888Z,20.64
2023-01-07T06:32:40.888Z,20.64
2023-01-07T06:33:40.910Z,20.73
2023-01-07T06:34:40.876Z,20.54
2023-01-07T06:35:40.889Z,20.64
2023-01-07T06:36:40.875Z,20.64
2023-01-07T06:37:40.912Z,20.54
2023-01-07T06:38:40.876Z,20.64
2023-01-07T06:39:40.880Z,20.64
2023-01-07T06:40:40.877Z,20.54
2023-01-07T06:41:40.879Z,20.64
2023-01-07T06:42:40.881Z,20.54
2023-01-07T06:43:40.898Z,20.64
2023-01-07T06:44:40.990Z,20.54
2023-01-07T06:45:41.720Z,20.54
2023-01-07T06:46:40.948Z,20.54
2023-01-07T06:47:40.890Z,20.83
2023-01-07T06:48:40.865Z,20.44
2023-01-07T06:49:40.871Z,20.44
2023-01-07T06:50:40.867Z,20.73
2023-01-07T06:51:40.867Z,20.73
2023-01-07T06:52:40.861Z,20.54
2023-01-07T06:53:40.861Z,20.93
2023-01-07T06:54:40.871Z,20.44
2023-01-07T06:55:40.869Z,20.73
2023-01-07T06:56:40.867Z,20.83
2023-01-07T06:57:40.854Z,20.73
2023-01-07T06:58:40.876Z,20.83
2023-01-07T06:59:40.853Z,20.44
2023-01-07T07:00:40.974Z,20.93
2023-01-07T07:01:40.979Z,20.34
2023-01-07T07:02:40.906Z,20.64
2023-01-07T07:03:40.854Z,20.64
2023-01-07T07:04:40.855Z,20.83
2023-01-07T07:05:40.846Z,20.73
2023-01-07T07:06:40.854Z,20.73
2023-01-07T07:07:40.846Z,20.64
2023-01-07T07:08:40.871Z,20.93
2023-01-07T07:09:40.844Z,20.64
2023-01-07T07:10:40.856Z,20.93
2023-01-07T07:11:40.843Z,20.83
2023-01-07T07:12:40.849Z,20.83
2023-01-07T07:13:40.840Z,20.83
2023-01-07T07:14:40.846Z,20.74
2023-01-07T07:15:40.849Z,20.64
2023-01-07T07:16:40.968Z,20.64
2023-01-07T07:17:40.844Z,20.73
2023-01-07T07:18:40.845Z,21.02
2023-01-07T07:19:40.836Z,20.64
2023-01-07T07:20:40.842Z,20.93
2023-01-07T07:21:40.832Z,20.83
2023-01-07T07:22:40.840Z,20.54
2023-01-07T07:23:40.833Z,20.54
2023-01-07T07:24:40.841Z,20.73
2023-01-07T07:25:40.828Z,20.83
2023-01-07T07:26:40.835Z,20.64
2023-01-07T07:27:40.827Z,20.44
2023-01-07T07:28:40.835Z,20.83
2023-01-07T07:29:40.824Z,20.64
2023-01-07T07:30:45.683Z,20.36
2023-01-07T07:31:40.898Z,20.54
2023-01-07T07:32:40.952Z,20.54
2023-01-07T07:33:40.822Z,20.44
2023-01-07T07:34:40.828Z,20.44
2023-01-07T07:35:40.822Z,20.45
2023-01-07T07:36:40.829Z,20.45
2023-01-07T07:37:40.821Z,20.44
2023-01-07T07:38:40.826Z,20.44
2023-01-07T07:39:40.818Z,20.54
2023-01-07T07:40:40.826Z,20.26
2023-01-07T07:41:40.821Z,20.44
2023-01-07T07:43:09.377Z,20.25
2023-01-07T07:43:40.813Z,20.25
2023-01-07T07:44:40.818Z,20.44
2023-01-07T07:45:40.845Z,20.34
2023-01-07T07:46:42.115Z,20.55
2023-01-07T07:47:40.807Z,20.25
2023-01-07T07:48:40.951Z,20.25
2023-01-07T07:49:40.809Z,20.25
2023-01-07T07:50:40.833Z,20.16
2023-01-07T07:51:40.803Z,20.15
2023-01-07T07:52:40.873Z,20.25
2023-01-07T07:53:40.803Z,20.15
2023-01-07T07:54:40.814Z,20.26
2023-01-07T07:55:40.839Z,20.16
2023-01-07T07:56:40.814Z,20.36
2023-01-07T07:57:40.808Z,20.06
2023-01-07T07:58:40.814Z,20.06
2023-01-07T07:59:40.797Z,20.25
2023-01-07T08:00:40.812Z,19.96
2023-01-07T08:01:41.003Z,20.25
2023-01-07T08:02:40.801Z,20.06
2023-01-07T08:03:40.902Z,20.06
2023-01-07T08:04:40.920Z,20.06
2023-01-07T08:05:40.793Z,20.06
2023-01-07T08:06:40.804Z,20.06
2023-01-07T08:07:40.788Z,20.06
2023-01-07T08:08:40.824Z,20.06
2023-01-07T08:09:40.791Z,20.06
2023-01-07T08:10:40.800Z,20.06
2023-01-07T08:11:40.806Z,20.06
2023-01-07T08:12:40.791Z,20.06
2023-01-07T08:13:40.782Z,20.06
2023-01-07T08:14:43.169Z,20.06
2023-01-07T08:15:40.784Z,20.06
2023-01-07T08:16:40.794Z,20.16
2023-01-07T08:17:40.798Z,20.15
2023-01-07T08:18:40.788Z,20.15
2023-01-07T08:19:40.776Z,20.06
2023-01-07T08:20:40.897Z,20.06
2023-01-07T08:21:40.776Z,20.06
2023-01-07T08:22:40.783Z,20.06
2023-01-07T08:23:40.780Z,20.06
2023-01-07T08:24:40.782Z,20.16
2023-01-07T08:25:40.771Z,20.06
2023-01-07T08:26:40.782Z,20.25
2023-01-07T08:27:40.770Z,20.16
2023-01-07T08:28:40.776Z,20.15
2023-01-07T08:29:40.771Z,20.26
2023-01-07T08:30:40.773Z,20.26
2023-01-07T08:31:40.803Z,20.16
2023-01-07T08:32:40.774Z,20.16
2023-01-07T08:33:40.767Z,20.26
2023-01-07T08:34:40.774Z,20.26
2023-01-07T08:35:40.766Z,20.16
2023-01-07T08:36:40.912Z,20.15
2023-01-07T08:37:40.763Z,20.26
2023-01-07T08:38:40.768Z,20.36
2023-01-07T08:39:40.761Z,20.25
2023-01-07T08:40:40.767Z,20.26
2023-01-07T08:41:40.760Z,20.25
2023-01-07T08:42:40.765Z,19.76
2023-01-07T08:43:40.759Z,19.68
2023-01-07T08:44:40.763Z,19.67
2023-01-07T08:45:40.755Z,20.26
2023-01-07T08:46:40.793Z,20.26
2023-01-07T08:47:40.757Z,19.86
2023-01-07T08:48:40.769Z,19.78
2023-01-07T08:49:40.751Z,19.78
2023-01-07T08:50:40.765Z,19.86
2023-01-07T08:51:40.748Z,19.87
2023-01-07T08:52:40.902Z,19.87
2023-01-07T08:53:40.754Z,19.86
2023-01-07T08:54:40.753Z,19.86
2023-01-07T08:55:40.745Z,19.87
2023-01-07T08:56:40.781Z,19.87
2023-01-07T08:57:40.748Z,19.96
2023-01-07T08:58:40.758Z,19.87
2023-01-07T08:59:40.777Z,19.86
2023-01-07T09:00:40.776Z,19.87
2023-01-07T09:01:41.006Z,19.96
2023-01-07T09:02:40.905Z,19.86
2023-01-07T09:03:40.743Z,19.87
2023-01-07T09:04:40.746Z,19.96
2023-01-07T09:05:40.740Z,19.87
2023-01-07T09:06:40.742Z,19.96
2023-01-07T09:07:40.748Z,19.96
2023-01-07T09:08:40.857Z,19.96
2023-01-07T09:09:40.733Z,19.96
2023-01-07T09:10:40.737Z,19.87
2023-01-07T09:11:40.732Z,19.87
2023-01-07T09:12:40.738Z,19.96
2023-01-07T09:13:40.730Z,19.96
2023-01-07T09:14:40.736Z,19.86
2023-01-07T09:15:40.728Z,19.96
2023-01-07T09:16:40.753Z,19.87
2023-01-07T09:17:40.729Z,19.96
2023-01-07T09:18:40.732Z,19.96
2023-01-07T09:19:40.734Z,19.96
2023-01-07T09:20:40.733Z,20.06
2023-01-07T09:21:40.720Z,19.86
2023-01-07T09:22:40.727Z,19.96
2023-01-07T09:23:40.726Z,19.96
2023-01-07T09:24:40.847Z,19.96
2023-01-07T09:25:40.717Z,19.96
2023-01-07T09:26:40.728Z,19.76
2023-01-07T09:27:40.739Z,19.87
2023-01-07T09:28:40.766Z,19.96
2023-01-07T09:29:40.713Z,20.06
2023-01-07T09:30:40.719Z,19.96
2023-01-07T09:31:40.807Z,19.76
2023-01-07T09:32:40.730Z,19.96
2023-01-07T09:33:40.712Z,19.87
2023-01-07T09:34:40.717Z,19.87
2023-01-07T09:35:40.720Z,19.96
2023-01-07T09:36:40.716Z,19.96
2023-01-07T09:37:40.708Z,19.78
2023-01-07T09:38:40.724Z,19.78
2023-01-07T09:39:40.708Z,19.87
2023-01-07T09:40:40.833Z,19.87
2023-01-07T09:41:40.705Z,19.96
2023-01-07T09:42:40.710Z,19.68
2023-01-07T09:44:00.832Z,19.68
2023-01-07T09:44:40.707Z,19.68
2023-01-07T09:45:40.770Z,19.78
2023-01-07T09:46:40.708Z,19.78
2023-01-07T09:47:40.698Z,19.58
2023-01-07T09:48:40.705Z,19.68
2023-01-07T09:49:40.699Z,19.68
2023-01-07T09:50:40.712Z,19.68
2023-01-07T09:51:40.704Z,19.78
2023-01-07T09:52:40.714Z,19.48
2023-01-07T09:53:40.699Z,19.48
2023-01-07T09:54:40.699Z,19.48
2023-01-07T09:56:12.042Z,19.58
2023-01-07T09:56:40.822Z,19.38
2023-01-07T09:57:40.695Z,19.48
2023-01-07T09:58:40.697Z,19.38
2023-01-07T09:59:40.701Z,19.38
2023-01-07T10:00:40.698Z,19.48
2023-01-07T10:01:40.704Z,19.48
2023-01-07T10:02:40.883Z,19.29
2023-01-07T10:03:40.735Z,19.48
2023-01-07T10:04:40.694Z,19.19
2023-01-07T10:05:40.684Z,19.19
2023-01-07T10:06:43.807Z,19.19
2023-01-07T10:07:40.684Z,19.00
2023-01-07T10:08:40.693Z,18.90
2023-01-07T10:09:40.686Z,19.00
2023-01-07T10:10:40.689Z,19.00
2023-01-07T10:11:42.065Z,19.00
2023-01-07T10:12:40.820Z,19.09
2023-01-07T10:13:40.683Z,19.00
2023-01-07T10:14:40.694Z,19.09
2023-01-07T10:15:40.681Z,18.90
2023-01-07T10:16:40.750Z,19.00
2023-01-07T10:17:40.687Z,19.00
2023-01-07T10:18:40.682Z,19.00
2023-01-07T10:19:40.675Z,18.90
2023-01-07T10:20:40.681Z,19.00
2023-01-07T10:21:40.674Z,19.00
2023-01-07T10:22:40.680Z,19.00
2023-01-07T10:23:40.671Z,19.00
2023-01-07T10:24:40.677Z,19.00
2023-01-07T10:25:40.671Z,19.09
2023-01-07T10:26:40.682Z,19.09
2023-01-07T10:27:40.675Z,19.09
2023-01-07T10:28:40.800Z,19.00
2023-01-07T10:29:40.678Z,19.09
2023-01-07T10:30:41.713Z,19.09
2023-01-07T10:31:40.757Z,19.19
2023-01-07T10:32:40.670Z,19.19
2023-01-07T10:33:40.662Z,19.09
2023-01-07T10:34:40.667Z,19.09
2023-01-07T10:35:40.667Z,19.09
2023-01-07T10:36:40.667Z,19.09
2023-01-07T10:37:40.656Z,19.09
2023-01-07T10:38:40.665Z,19.09
2023-01-07T10:39:40.675Z,19.09
2023-01-07T10:40:40.665Z,19.19
2023-01-07T10:41:40.655Z,19.09
2023-01-07T10:42:40.663Z,19.19
2023-01-07T10:43:40.659Z,19.19
2023-01-07T10:44:40.777Z,19.19
2023-01-07T10:45:40.705Z,19.19
2023-01-07T10:46:40.663Z,19.19
2023-01-07T10:47:40.667Z,19.19
2023-01-07T10:48:40.681Z,19.19
2023-01-07T10:49:40.651Z,19.09
2023-01-07T10:50:40.657Z,19.19
2023-01-07T10:51:40.647Z,19.19
2023-01-07T10:52:40.658Z,19.09
2023-01-07T10:53:40.648Z,19.00
2023-01-07T10:54:40.665Z,19.29
2023-01-07T10:55:40.647Z,19.09
2023-01-07T10:56:40.659Z,19.00
2023-01-07T10:57:40.644Z,19.09
2023-01-07T10:58:40.658Z,19.09
2023-01-07T10:59:40.643Z,19.38
2023-01-07T11:00:40.775Z,19.09
2023-01-07T11:01:40.804Z,19.09
2023-01-07T11:02:40.703Z,19.09
2023-01-07T11:03:40.641Z,19.19
2023-01-07T11:04:40.648Z,19.09
2023-01-07T11:05:40.659Z,19.09
2023-01-07T11:06:40.653Z,19.09
2023-01-07T11:07:40.638Z,19.29
2023-01-07T11:08:40.646Z,19.19
2023-01-07T11:09:40.646Z,19.09
2023-01-07T11:10:40.633Z,19.19
2023-01-07T11:11:40.643Z,19.19
2023-01-07T11:12:40.638Z,19.19
2023-01-07T11:13:40.639Z,19.29
2023-01-07T11:14:40.635Z,19.29
2023-01-07T11:15:40.647Z,19.29
2023-01-07T11:16:40.815Z,19.29
2023-01-07T11:17:40.641Z,19.29
2023-01-07T11:18:40.627Z,19.19
2023-01-07T11:19:40.634Z,19.19
2023-01-07T11:20:40.630Z,19.19
2023-01-07T11:21:42.720Z,19.09
2023-01-07T11:22:40.626Z,19.09
2023-01-07T11:23:42.765Z,19.19
2023-01-07T11:24:40.625Z,18.71
2023-01-07T11:25:40.631Z,19.09
2023-01-07T11:26:40.623Z,19.00
2023-01-07T11:27:40.629Z,18.80
2023-01-07T11:28:40.629Z,19.19
2023-01-07T11:29:40.631Z,19.19
2023-01-07T11:30:40.620Z,18.90
2023-01-07T11:31:40.691Z,18.90
2023-01-07T11:32:40.748Z,19.00
2023-01-07T11:34:01.267Z,18.80
2023-01-07T11:34:40.618Z,18.90
2023-01-07T11:35:40.623Z,18.80
2023-01-07T11:36:40.650Z,18.90
2023-01-07T11:37:40.621Z,19.00
2023-01-07T11:38:40.613Z,19.00
2023-01-07T11:39:40.619Z,18.90
2023-01-07T11:40:40.613Z,19.00
2023-01-07T11:41:40.618Z,19.00
2023-01-07T11:42:40.625Z,18.90
2023-01-07T11:43:40.621Z,18.80
2023-01-07T11:44:40.620Z,19.09
2023-01-07T11:45:40.666Z,19.09
2023-01-07T11:46:40.646Z,18.80
2023-01-07T11:47:40.611Z,19.00
2023-01-07T11:48:40.724Z,19.00
2023-01-07T11:49:40.611Z,18.80
2023-01-07T11:50:40.601Z,18.90
2023-01-07T11:51:40.614Z,19.00
2023-01-07T11:52:40.601Z,18.90
2023-01-07T11:53:40.608Z,18.90
2023-01-07T11:54:40.598Z,19.00
2023-01-07T11:55:40.608Z,19.19
2023-01-07T11:56:40.599Z,19.00
2023-01-07T11:57:40.605Z,18.90
2023-01-07T11:58:40.610Z,19.00
2023-01-07T11:59:40.606Z,19.00
2023-01-07T12:00:40.604Z,18.80
2023-01-07T12:01:40.602Z,18.90
2023-01-07T12:02:40.652Z,18.90
2023-01-07T12:03:40.701Z,18.90
2023-01-07T12:04:40.706Z,18.90
2023-01-07T12:05:40.597Z,19.00
2023-01-07T12:06:40.593Z,19.00
2023-01-07T12:07:41.938Z,18.90
2023-01-07T12:08:40.591Z,18.90
2023-01-07T12:09:40.595Z,18.90
2023-01-07T12:10:40.588Z,18.90
2023-01-07T12:11:40.593Z,18.71
2023-01-07T12:12:40.592Z,18.80
2023-01-07T12:13:40.618Z,18.90
2023-01-07T12:14:40.592Z,18.90
2023-01-07T12:15:40.591Z,18.90
2023-01-07T12:16:40.687Z,18.90
2023-01-07T12:17:40.587Z,18.90
2023-01-07T12:18:40.577Z,18.80
2023-01-07T12:19:40.587Z,18.90
2023-01-07T12:20:40.692Z,18.90
2023-01-07T12:21:40.603Z,18.90
2023-01-07T12:22:40.583Z,18.90
2023-01-07T12:23:40.584Z,18.90
2023-01-07T12:24:40.580Z,19.00
2023-01-07T12:25:40.597Z,19.00
2023-01-07T12:26:40.573Z,19.00
2023-01-07T12:27:40.579Z,18.90
2023-01-07T12:28:40.579Z,19.00
2023-01-07T12:29:40.604Z,19.00
2023-01-07T12:30:43.173Z,19.00
2023-01-07T12:31:40.648Z,19.00
2023-01-07T12:32:40.569Z,18.90
2023-01-07T12:33:40.577Z,18.90
2023-01-07T12:34:40.569Z,18.90
2023-01-07T12:35:40.576Z,18.90
2023-01-07T12:36:40.698Z,19.00
2023-01-07T12:37:40.570Z,19.00
2023-01-07T12:38:40.560Z,19.00
2023-01-07T12:39:40.572Z,18.80
2023-01-07T12:40:40.562Z,18.80
2023-01-07T12:41:40.568Z,18.80
2023-01-07T12:42:40.558Z,18.80
2023-01-07T12:43:40.565Z,19.00
2023-01-07T12:44:40.560Z,18.90
2023-01-07T12:45:40.564Z,18.90
2023-01-07T12:46:40.640Z,18.90
2023-01-07T12:47:40.566Z,18.71
2023-01-07T12:48:40.552Z,18.80
2023-01-07T12:49:40.587Z,18.80
2023-01-07T12:50:40.604Z,18.90
2023-01-07T12:51:40.568Z,18.80
2023-01-07T12:52:40.681Z,18.90